Solomons, Maryland
Current Conditions -  °F | °C
As of 3:52 AM on Wednesday 26 Nov 2014 (Local Time) from KNHK Reporting Station
Light Rain Light Rain  
Wind Chill: 41°   Ceiling: 6500
Heat Index: 46°   Visibility: 7mi
Dew Point: 40°   Wind: 10mph
Humidity: 79%   Direction: 80°E
Pressure: 30.06"   Gusts: NA
Location:  38.32°N, 76.46°W
Report Text: KNHK 260852Z AUTO 08009KT 7SM -RA OVC065 08/04 A3006 RMK AO2 SLP179 P0004 60010 T00780044 58022
Loading
Personal Weather Stations






























Interactive Weather Map New forecast layout! Learn more

10-Day Weather Forecast

Advertisements
Track Severe Weather on mobile